Ansley, NE (68814)

9:26 AM CST on January 19, 2018 (GMT -0600)
Main Street | | Change Station
Active Advisory: Winter Storm Watch

Elev 2307 ft 41.29 °N, 99.38 °W | Updated 6 seconds ago

Partly Cloudy
Partly Cloudy
36.2 °F
Feels Like 36 °F
N
0.0
Wind Variable Wind from SSW
Gusts 0.0 mph

Today
High -- | Low -- °F
--% Chance of Precip.
Yesterday
High -- | Low -- °F
Precip. -- in
Pressure 29.71 in
Visibility 10.0 miles
Clouds Clear
Windchill 36 °F
Dew Point 30 °F
Humidity 77%
Rainfall 0.00 in
Snow Depth Not available.
7:58 AM 5:38 PM
Waxing Crescent, 6% visible
METAR KBBW 191453Z AUTO 21005KT 10SM CLR 04/M03 A2967 RMK AO2 SLP061 T00391033 58007
Pressure 29.71 in
Visibility 10.0 miles
Clouds Clear
Windchill 36 °F
Dew Point 30 °F
Humidity 77%
Rainfall 0.00 in
Snow Depth Not available.
7:58 AM 5:38 PM
Waxing Crescent, 6% visible
METAR KBBW 191453Z AUTO 21005KT 10SM CLR 04/M03 A2967 RMK AO2 SLP061 T00391033 58007

Get Your Daily Forecast Email!

Thanks for signing up!

Be on the lookout for a verification email in your inbox.

You'll start receiving severe weather alerts in your inbox..

×

10-Day Weather Forecast

Almanac

Astronomy

Jan. 19, 2018 Rise Set
Actual Time
Civil Twilight
Nautical Twilight
Astronomical Twilight
Moon
Length of Visible Light
Length of Day
Tomorrow will be .
, % of the Moon is Illuminated

Today's Extremes

State Highs State Lows

Community

WunderPhotos

Category 6

Welcome to Category 6. This is the collective home for Weather Underground's featured writeups by Dr. Jeff Masters (right), Bob Henson (left), Chris Burt, and other regular contributors.

Nearby

Air Quality

  Air Quality AQ Index Pollutant
Not available.

Snow Depth

Station Depth Elevation

Earthquake Activity

City Distance Mag. Time & Date
Minimum magnitude displayed is 2.5.

Coastal Water Temperatures

Place Temperature

Stations

Nearby Weather Stations

Station Location Temp. Windchill Dew Point Humidity Wind Precip. Elev Updated Type
                   

Watches & Warnings

Winter Storm Watch
Issued: 3:41 AM CST Jan. 19, 2018 – National Weather Service

... Winter Storm Watch in effect from Sunday morning through
Monday morning...

* what... heavy snow is possible. Plan on difficult travel
conditions. Total snow accumulations of 4 to 6 inches, with
localized amounts up to 8 inches, are possible.

* Where... portions of central Nebraska, north central Nebraska,
southwest Nebraska and west central Nebraska.

* When... from Sunday morning through Monday morning.

* Additional details... significant reductions in visibility are
possible.

Precautionary/preparedness actions...

A Winter Storm Watch means there is potential for significant
snow, sleet or ice accumulations that may impact travel. Continue
to monitor the latest forecasts.